ADDS METAR Data INFO
IDs: Format: Raw Decoded Include TAF

Data at: 1028 UTC 23 Feb 2018

KSNK 231015Z AUTO 29005KT 1/4SM FG OVC002 02/02 A3012 RMK AO2 T00190019
KSNK 230955Z AUTO 00000KT 1/4SM FG OVC002 02/02 A3014 RMK AO2 T00180018
KSNK 230935Z AUTO 19003KT 1/4SM FG OVC002 02/02 A3015 RMK AO2 T00200020
KSNK 230915Z AUTO 00000KT 1/4SM FG OVC002 02/02 A3015 RMK AO2 T00200020
KSNK 230855Z AUTO 29003KT 1/4SM FG OVC002 02/02 A3014 RMK AO2 T00200020
KSNK 230835Z AUTO 30005KT 1/4SM FG OVC002 02/02 A3015 RMK AO2 T00200020
KSNK 230815Z AUTO 29005KT 1/4SM FG OVC002 02/02 A3016 RMK AO2 T00220022
KSNK 230755Z AUTO 27005KT 1/4SM FG OVC002 02/02 A3016 RMK AO2 T00220022
KSNK 230735Z AUTO 27004KT 1/4SM FG OVC002 02/02 A3016 RMK AO2 T00230023
KSNK 230715Z AUTO 18006KT 1/4SM FG OVC002 03/03 A3018 RMK AO2 T00250025
KSNK 230700Z AUTO 19006KT 1/4SM FG OVC002 03/03 A3018 RMK AO2 T00250025
KSNK 230635Z AUTO 17007KT 1/4SM FG OVC002 02/02 A3018 RMK AO2 T00240024
KSNK 230615Z AUTO 17005KT 1/4SM FG OVC002 03/03 A3018 RMK AO2 T00250025
KSNK 230555Z AUTO 17008KT 1/2SM FG OVC002 02/02 A3017 RMK AO2 T00240024
KSNK 230535Z AUTO 17005KT 1 1/2SM BR OVC002 02/02 A3017 RMK AO2 T00230023
KSNK 230515Z AUTO 19005KT 3SM BR OVC002 02/02 A3018 RMK AO2 T00240022
KSNK 230455Z AUTO 16008KT 7SM OVC004 03/02 A3019 RMK AO2 T00250022
KSNK 230435Z AUTO 20004KT 7SM OVC004 03/02 A3019 RMK AO2 T00270024
KSNK 230415Z AUTO 19007KT 10SM OVC006 03/02 A3019 RMK AO2 T00260021
KSNK 230355Z AUTO 16005KT 10SM OVC006 03/02 A3019 RMK AO2 T00260020
KSNK 230335Z AUTO 16005KT 10SM OVC006 03/02 A3019 RMK AO2 T00260020
KSNK 230315Z AUTO 00000KT 10SM OVC006 03/02 A3018 RMK AO2 T00260020
KSNK 230255Z AUTO 20003KT 10SM OVC008 03/02 A3018 RMK AO2 T00270020
KSNK 230235Z AUTO 20004KT 10SM OVC008 03/02 A3019 RMK AO2 T00270020
KSNK 230215Z AUTO 19004KT 10SM OVC008 03/02 A3018 RMK AO2 T00270020
KSNK 230155Z AUTO 20003KT 10SM OVC008 03/02 A3018 RMK AO2 T00270020
KSNK 230135Z AUTO 18004KT 10SM OVC008 03/02 A3017 RMK AO2 T00270019
KSNK 230115Z AUTO 21004KT 10SM OVC008 03/02 A3017 RMK AO2 T00280019
KSNK 230055Z AUTO 17003KT 10SM OVC008 03/02 A3016 RMK AO2 T00280019
KSNK 230035Z AUTO 22005KT 10SM OVC008 03/02 A3017 RMK AO2 T00280018
KSNK 230015Z AUTO 22004KT 10SM OVC008 03/02 A3016 RMK AO2 T00300019
KSNK 222355Z AUTO 22005KT 10SM OVC008 03/02 A3016 RMK AO2 T00300019
KSNK 222335Z AUTO 21004KT 10SM OVC006 03/02 A3015 RMK AO2 T00280019
KSNK 222315Z AUTO 21005KT 10SM OVC006 03/02 A3016 RMK AO2 T00270020
KSNK 222255Z AUTO 20004KT 10SM OVC006 02/02 A3015 RMK AO2 T00230019
KSNK 222235Z AUTO 21004KT 10SM OVC004 02/02 A3014 RMK AO2 T00210016
KSNK 222215Z AUTO 00000KT 7SM OVC004 02/01 A3015 RMK AO2 T00190014
KSNK 222155Z AUTO 18004KT 4SM BR OVC004 02/01 A3015 RMK AO2 T00160012
KSNK 222135Z AUTO 16003KT 2 1/2SM BR OVC004 01/01 A3015 RMK AO2 T00140010
KSNK 222115Z AUTO 21003KT 5SM BR OVC006 02/01 A3016 RMK AO2 T00150008
KSNK 222055Z AUTO 21004KT 10SM OVC006 01/01 A3017 RMK AO2 T00120007
KSNK 222035Z AUTO 00000KT 10SM OVC006 01/01 A3017 RMK AO2 T00100005
KSNK 222015Z AUTO 19004KT 7SM OVC006 01/01 A3018 RMK AO2 T00090005
KSNK 221955Z AUTO 00000KT 4SM BR OVC006 01/00 A3019 RMK AO2 T00050002
KSNK 221935Z AUTO 00000KT 3SM BR OVC004 00/00 A3020 RMK AO2 T00011002
KSNK 221915Z AUTO 00000KT 2 1/2SM BR OVC004 00/00 A3022 RMK AO2 LTG DSNT NE T10011004
KSNK 221855Z AUTO 00000KT 2 1/2SM BR OVC004 00/M01 A3023 RMK AO2 T10041006
KSNK 221835Z AUTO 00000KT 1 3/4SM BR OVC004 M01/M01 A3024 RMK AO2 T10081010
KSNK 221815Z AUTO 00000KT 2SM BR OVC004 M01/M01 A3025 RMK AO2 T10121014
KSNK 221755Z AUTO 00000KT 2 1/2SM BR OVC004 M01/M01 A3025 RMK AO2 T10141015
KSNK 221735Z AUTO 00000KT 2 1/2SM BR OVC004 M01/M02 A3024 RMK AO2 T10151016
KSNK 221715Z AUTO 06003KT 2SM BR OVC004 M02/M02 A3024 RMK AO2 T10171018
KSNK 221655Z AUTO 00000KT 2 1/2SM BR OVC004 M02/M02 A3024 RMK AO2 LTG DSNT E T10191020
KSNK 221635Z AUTO 03003KT 2 1/2SM BR OVC004 M02/M02 A3025 RMK AO2 T10191021
KSNK 221615Z AUTO 04003KT 4SM BR OVC006 M02/M02 A3026 RMK AO2 T10201023
KSNK 221555Z AUTO 03003KT 2SM BR OVC004 M02/M02 A3025 RMK AO2 T10221024
KSNK 221535Z AUTO 02003KT 4SM BR OVC004 M02/M02 A3025 RMK AO2 T10221025
KSNK 221515Z AUTO 03003KT 5SM BR OVC004 M02/M02 A3025 RMK AO2 T10211024
KSNK 221455Z AUTO 05003KT 3SM BR OVC006 M02/M02 A3025 RMK AO2 T10231025
KSNK 221435Z AUTO 06004KT 4SM BR BKN006 OVC013 M02/M03 A3024 RMK AO2 T10241026
KSNK 221415Z AUTO 05003KT 4SM BR BKN006 OVC013 M02/M03 A3024 RMK AO2 LTG DSNT NE T10251027
KSNK 221355Z AUTO 02003KT 2 1/2SM UP BKN006 OVC010 M03/M03 A3023 RMK AO2 P0003 T10261028
KSNK 221335Z AUTO 01005KT 5SM -SN BKN004 OVC010 M03/M03 A3023 RMK AO2 LTG DSNT E P0003 T10261027
KSNK 221315Z AUTO 02005KT 3SM VCTSUP OVC004 M03/M03 A3022 RMK AO2 LTG DSNT E AND SE P0002 T10271028
KSNK 221255Z AUTO 01006KT 7SM VCTSUP OVC004 M03/M03 A3023 RMK AO2 LTG DSNT E T10291030
KSNK 221235Z AUTO 02005KT 7SM UP OVC004 M03/M03 A3022 RMK AO2 T10291030
KSNK 221215Z AUTO 03005KT 10SM OVC004 M03/M03 A3023 RMK AO2 LTG DSNT S T10311032
KSNK 221155Z AUTO 01006KT 10SM OVC004 M03/M03 A3022 RMK AO2 T10311032
KSNK 221135Z AUTO 02005KT 7SM OVC004 M03/M03 A3022 RMK AO2 T10311032
KSNK 221115Z AUTO 02006KT 10SM OVC004 M03/M03 A3022 RMK AO2 T10321033
KSNK 221055Z AUTO 01009KT 7SM OVC004 M03/M03 A3022 RMK AO2 T10321034
KSNK 221035Z AUTO 01008KT 5SM BR BKN004 OVC017 M03/M03 A3022 RMK AO2 T10321033
KSNK 221015Z AUTO 01005KT 4SM BR BKN004 BKN010 OVC019 M03/M03 A3025 RMK AO2 T10321034
KSNK 220955Z AUTO 01004KT 3SM UP OVC006 M03/M03 A3026 RMK AO2 T10351035
KSNK 220935Z AUTO 01003KT 4SM BR OVC006 M03/M03 A3028 RMK AO2 T10351035
KSNK 220915Z AUTO 02003KT 3SM UP OVC004 M03/M04 A3028 RMK AO2 T10351036
KSNK 220855Z AUTO 06003KT 3SM UP OVC004 M03/M04 A3028 RMK AO2 T10351036
KSNK 220835Z AUTO 05005KT 1 1/2SM UP OVC002 M03/M04 A3027 RMK AO2 T10351037
KSNK 220815Z AUTO 03004KT 1SM BR OVC002 M04/M04 A3026 RMK AO2 T10361037
KSNK 220755Z AUTO 02006KT 1 1/4SM BR OVC002 M04/M04 A3026 RMK AO2 T10371038
KSNK 220735Z AUTO 04006KT 1 1/2SM BR OVC002 M04/M04 A3026 RMK AO2 T10361038
KSNK 220715Z AUTO 03005KT 1 1/2SM BR OVC002 M04/M04 A3026 RMK AO2 T10371039
KSNK 220655Z AUTO 04008KT 1 3/4SM BR OVC002 M04/M04 A3025 RMK AO2 T10371039
KSNK 220635Z AUTO 04008KT 2 1/2SM BR OVC002 M04/M04 A3026 RMK AO2 T10371039
KSNK 220615Z AUTO 04008KT 2SM BR OVC002 M04/M04 A3026 RMK AO2 T10381040
KSNK 220555Z AUTO 03010KT 3SM BR OVC002 M04/M04 A3026 RMK AO2 T10381040
KSNK 220535Z AUTO 05008KT 4SM BR OVC002 M04/M04 A3027 RMK AO2 T10381040
KSNK 220515Z AUTO 04008KT 5SM BR OVC004 M04/M04 A3027 RMK AO2 T10401040
KSNK 220455Z AUTO 03008KT 7SM OVC004 M04/M04 A3027 RMK AO2 T10391040
KSNK 220435Z AUTO 03008KT 10SM OVC004 M04/M04 A3028 RMK AO2 T10391041
KSNK 220415Z AUTO 03006KT 10SM OVC004 M04/M04 A3030 RMK AO2 T10391041
KSNK 220355Z AUTO 03007KT 10SM OVC004 M04/M04 A3030 RMK AO2 T10401042
KSNK 220035Z AUTO 03007KT 5SM BR OVC006 M03/M04 A3030 RMK AO2 T10351042
KSNK 220015Z AUTO 03009KT 7SM OVC006 M04/M04 A3028 RMK AO2 T10361043
KSNK 212355Z AUTO 03011KT 7SM OVC006 M03/M04 A3027 RMK AO2 T10351043
KSNK 212335Z AUTO 03007KT 10SM OVC006 M03/M04 A3028 RMK AO2 T10351042
KSNK 212315Z AUTO 02009KT 3SM BR OVC006 M03/M04 A3027 RMK AO2 T10351042
KSNK 212255Z AUTO 03010KT 3SM UP OVC008 M03/M04 A3028 RMK AO2 T10341041
KSNK 212235Z AUTO 03009KT 2 1/2SM UP OVC008 M03/M04 A3029 RMK AO2 T10351042